NCAR-RAP Real-Time Weather Data

Output produced by METARs form (01 October 2022  03:58 UTC)
found at http://weather.rap.ucar.edu/surface/
 
WIII 010400Z 07010KT 9999 SCT022 34/25 Q1009 NOSIG
WIII 010330Z 07008KT 030V110 9999 SCT022 33/25 Q1010 NOSIG
WIII 010300Z 09008KT 9999 SCT022 32/25 Q1010 NOSIG
WIII 010230Z VRB04KT 7000 SCT022 31/25 Q1010 NOSIG
WIII 010200Z VRB04KT 6000 FEW022 31/25 Q1010 NOSIG
WIII 010130Z VRB03KT 6000 NSC 30/25 Q1010 NOSIG
WIII 010100Z VRB04KT 6000 FEW022 29/25 Q1010 NOSIG
WIII 010030Z 17005KT 6000 FEW021 28/24 Q1010 NOSIG
WIII 010000Z 18004KT 6000 FEW021 27/24 Q1010 NOSIG
WIII 302330Z 20004KT 6000 FEW020 27/24 Q1010 NOSIG
WIII 302300Z 20004KT 6000 FEW020 26/24 Q1009 NOSIG
WIII 302230Z VRB04KT 7000 FEW020 26/24 Q1009 NOSIG
WIII 302200Z 20004KT 7000 FEW020 26/24 Q1009 NOSIG
WIII 302130Z 21004KT 7000 FEW020 27/24 Q1009 NOSIG
WIII 302100Z 20004KT 7000 FEW020 27/24 Q1009 NOSIG
WIII 302030Z 19003KT 5000 FEW020 27/24 Q1008 NOSIG
WIII 302000Z 20004KT 6000 FEW020 27/24 Q1008 NOSIG
WIII 301930Z VRB05KT 9999 FEW020 27/24 Q1008 NOSIG
WIII 301900Z 13004KT 9000 FEW020 26/24 Q1009 NOSIG
WIII 301830Z 10003KT 9000 FEW020 27/24 Q1009 NOSIG
WIII 301800Z 10003KT 9000 FEW020 27/24 Q1009 NOSIG
WIII 301730Z 11003KT 9000 FEW020 28/24 Q1009 NOSIG
WIII 301700Z 12003KT 9000 FEW020 28/24 Q1010 NOSIG
WIII 301630Z 14003KT 8000 FEW020 28/24 Q1010 NOSIG
WIII 301600Z VRB04KT 9000 FEW020 28/25 Q1010 NOSIG